createdAt,value
2023-05-10T00:01:05.992Z,10.04
2023-05-10T00:04:07.907Z,10.03
2023-05-10T00:07:09.624Z,10.02
2023-05-10T00:10:12.461Z,9.77
2023-05-10T00:13:14.439Z,10.01
2023-05-10T00:16:16.686Z,10.07
2023-05-10T00:19:18.367Z,10.04
2023-05-10T00:22:20.378Z,10.02
2023-05-10T00:25:25.048Z,9.99
2023-05-10T00:28:29.384Z,9.90
2023-05-10T00:31:31.956Z,9.81
2023-05-10T00:34:34.279Z,9.76
2023-05-10T00:37:36.204Z,9.65
2023-05-10T00:40:38.500Z,9.64
2023-05-10T00:43:45.753Z,9.64
2023-05-10T00:46:48.187Z,9.61
2023-05-10T00:49:50.554Z,9.66
2023-05-10T00:52:53.334Z,9.09
2023-05-10T00:55:55.240Z,9.67
2023-05-10T00:58:57.472Z,9.54
2023-05-10T01:01:59.443Z,9.55
2023-05-10T01:05:01.701Z,9.50
2023-05-10T01:08:03.750Z,9.56
2023-05-10T01:11:05.673Z,9.11
2023-05-10T01:14:07.881Z,9.52
2023-05-10T01:17:12.089Z,9.51
2023-05-10T01:20:15.525Z,9.38
2023-05-10T01:23:32.031Z,9.44
2023-05-10T01:26:42.714Z,9.39
2023-05-10T01:30:16.278Z,9.27
2023-05-10T01:33:21.175Z,9.40
2023-05-10T01:36:46.666Z,9.39
2023-05-10T01:39:56.199Z,9.33
2023-05-10T01:43:09.088Z,9.29
2023-05-10T01:46:17.625Z,9.27
2023-05-10T01:49:32.466Z,9.20
2023-05-10T01:52:42.416Z,9.25
2023-05-10T01:55:48.571Z,9.08
2023-05-10T01:58:52.852Z,9.15
2023-05-10T02:01:58.748Z,9.06
2023-05-10T02:05:00.810Z,9.13
2023-05-10T02:08:06.926Z,9.07
2023-05-10T02:11:09.881Z,8.88
2023-05-10T02:14:13.253Z,8.82
2023-05-10T02:17:15.636Z,9.09
2023-05-10T02:20:20.369Z,9.10
2023-05-10T02:23:24.791Z,9.09
2023-05-10T02:26:27.854Z,9.09
2023-05-10T02:29:30.880Z,8.96
2023-05-10T02:32:33.923Z,9.01
2023-05-10T02:35:37.448Z,8.73
2023-05-10T02:38:40.974Z,8.94
2023-05-10T02:41:43.683Z,8.85
2023-05-10T02:44:49.146Z,8.81
2023-05-10T02:47:51.100Z,8.65
2023-05-10T02:51:04.624Z,8.62
2023-05-10T02:54:16.618Z,8.58
2023-05-10T02:57:26.064Z,8.59
2023-05-10T03:00:28.057Z,8.54
2023-05-10T03:03:29.788Z,8.34
2023-05-10T03:06:32.430Z,8.35
2023-05-10T03:09:34.802Z,8.37
2023-05-10T03:12:54.986Z,8.15
2023-05-10T03:16:05.251Z,8.18
2023-05-10T03:19:28.678Z,8.32
2023-05-10T03:22:37.529Z,8.24
2023-05-10T03:25:42.275Z,8.29
2023-05-10T03:28:44.822Z,7.64
2023-05-10T03:31:47.028Z,8.17
2023-05-10T03:34:50.076Z,8.05
2023-05-10T03:37:51.927Z,8.19
2023-05-10T03:40:53.671Z,7.83
2023-05-10T03:43:55.480Z,8.17
2023-05-10T03:46:58.075Z,8.23
2023-05-10T03:50:00.430Z,8.18
2023-05-10T03:53:03.241Z,8.19
2023-05-10T03:56:05.369Z,8.02
2023-05-10T03:59:08.495Z,8.31
2023-05-10T04:02:10.767Z,8.29
2023-05-10T04:05:12.604Z,8.35
2023-05-10T04:08:15.794Z,8.23
2023-05-10T04:11:17.793Z,8.37
2023-05-10T04:14:19.530Z,8.46
2023-05-10T04:17:21.392Z,8.24
2023-05-10T04:20:23.227Z,8.24
2023-05-10T04:23:25.027Z,8.51
2023-05-10T04:26:26.881Z,8.50
2023-05-10T04:29:28.672Z,8.58
2023-05-10T04:32:30.468Z,8.63
2023-05-10T04:35:32.323Z,8.74
2023-05-10T04:38:34.182Z,8.85
2023-05-10T04:41:35.953Z,8.88
2023-05-10T04:44:38.752Z,8.71
2023-05-10T04:47:40.600Z,9.01
2023-05-10T04:50:42.348Z,9.14
2023-05-10T04:53:51.160Z,9.06
2023-05-10T04:56:59.495Z,9.13
2023-05-10T05:00:01.258Z,9.36
2023-05-10T05:03:03.196Z,9.49
2023-05-10T05:06:05.255Z,9.72
2023-05-10T05:09:07.047Z,9.96
2023-05-10T05:12:08.768Z,10.50
2023-05-10T05:15:11.776Z,11.32
2023-05-10T05:18:13.626Z,11.91
2023-05-10T05:21:19.481Z,12.44
2023-05-10T05:24:22.256Z,12.24
2023-05-10T05:27:25.390Z,13.57
2023-05-10T05:30:27.130Z,13.70
2023-05-10T05:33:28.849Z,14.03
2023-05-10T05:36:31.836Z,14.29
2023-05-10T05:39:33.593Z,14.46
2023-05-10T05:42:35.354Z,14.52
2023-05-10T05:45:37.696Z,14.65
2023-05-10T05:48:39.642Z,14.92
2023-05-10T05:51:41.445Z,15.13
2023-05-10T05:54:43.214Z,15.48
2023-05-10T05:57:48.160Z,15.63
2023-05-10T06:00:50.530Z,15.68
2023-05-10T06:03:53.469Z,15.50
2023-05-10T06:06:55.503Z,15.56
2023-05-10T06:09:57.262Z,16.10
2023-05-10T06:12:59.040Z,16.49
2023-05-10T06:16:00.955Z,16.54
2023-05-10T06:19:03.462Z,16.73
2023-05-10T06:22:05.287Z,16.72
2023-05-10T06:25:07.633Z,17.07
2023-05-10T06:28:09.345Z,17.27
2023-05-10T06:31:12.935Z,17.37
2023-05-10T06:34:14.687Z,17.48
2023-05-10T06:37:16.377Z,17.72
2023-05-10T06:40:18.771Z,17.86
2023-05-10T06:43:20.927Z,18.13
2023-05-10T06:46:23.000Z,18.20
2023-05-10T06:49:24.882Z,18.39
2023-05-10T06:52:26.649Z,18.53
2023-05-10T06:55:29.106Z,18.70
2023-05-10T06:58:30.759Z,18.96
2023-05-10T07:01:32.459Z,19.17
2023-05-10T07:04:34.305Z,19.07
2023-05-10T07:07:36.128Z,19.21
2023-05-10T07:10:37.953Z,19.38
2023-05-10T07:13:42.341Z,19.49
2023-05-10T07:16:44.443Z,19.58
2023-05-10T07:19:46.298Z,19.66
2023-05-10T07:22:48.014Z,19.65
2023-05-10T07:25:52.579Z,19.82
2023-05-10T07:28:54.344Z,19.47
2023-05-10T07:31:58.585Z,19.81
2023-05-10T07:35:00.681Z,19.69
2023-05-10T07:38:02.846Z,19.74
2023-05-10T07:41:04.697Z,19.97
2023-05-10T07:44:07.410Z,20.22
2023-05-10T07:47:09.188Z,20.25
2023-05-10T07:50:11.210Z,19.98
2023-05-10T07:53:13.184Z,20.37
2023-05-10T07:56:30.708Z,20.63
2023-05-10T07:59:33.278Z,20.78
2023-05-10T08:02:37.477Z,20.83
2023-05-10T08:05:39.273Z,21.04
2023-05-10T08:08:41.484Z,21.28
2023-05-10T08:11:43.223Z,21.30
2023-05-10T08:14:45.043Z,21.06
2023-05-10T08:17:46.940Z,21.17
2023-05-10T08:20:48.678Z,21.16
2023-05-10T08:23:50.740Z,21.30
2023-05-10T08:26:52.432Z,21.26
2023-05-10T08:29:54.158Z,21.46
2023-05-10T08:32:55.964Z,21.75
2023-05-10T08:35:57.792Z,21.91
2023-05-10T08:38:59.978Z,22.05
2023-05-10T08:42:04.979Z,22.11
2023-05-10T08:45:08.492Z,22.09
2023-05-10T08:48:12.062Z,21.96
2023-05-10T08:51:36.761Z,21.92
2023-05-10T08:54:39.117Z,21.78
2023-05-10T08:57:41.446Z,21.60
2023-05-10T09:00:44.116Z,21.81
2023-05-10T09:03:48.654Z,21.94
2023-05-10T09:06:50.487Z,22.09
2023-05-10T09:09:53.139Z,22.17
2023-05-10T09:12:59.296Z,22.04
2023-05-10T09:16:09.901Z,21.97
2023-05-10T09:19:22.038Z,22.22
2023-05-10T09:22:24.773Z,22.35
2023-05-10T09:25:26.556Z,22.54
2023-05-10T09:28:28.319Z,22.47
2023-05-10T09:31:48.374Z,22.62
2023-05-10T09:34:50.983Z,22.90
2023-05-10T09:37:55.105Z,23.12
2023-05-10T09:40:58.829Z,23.27
2023-05-10T09:44:00.577Z,23.47
2023-05-10T09:47:03.712Z,23.47
2023-05-10T09:50:06.107Z,23.54
2023-05-10T09:53:07.816Z,23.18
2023-05-10T09:56:09.676Z,23.53
2023-05-10T09:59:13.430Z,23.64
2023-05-10T10:02:15.434Z,23.51
2023-05-10T10:05:17.561Z,23.37
2023-05-10T10:08:20.038Z,23.53
2023-05-10T10:11:21.842Z,23.47
2023-05-10T10:14:27.486Z,23.24
2023-05-10T10:17:31.768Z,23.28
2023-05-10T10:20:33.498Z,23.10
2023-05-10T10:23:38.344Z,23.03
2023-05-10T10:26:43.718Z,23.30
2023-05-10T10:30:27.343Z,23.21
2023-05-10T10:33:37.530Z,23.21
2023-05-10T10:36:46.162Z,23.23
2023-05-10T10:39:49.801Z,23.26
2023-05-10T10:42:51.623Z,22.72
2023-05-10T10:46:15.854Z,22.79
2023-05-10T10:49:18.346Z,22.86
2023-05-10T10:52:40.040Z,22.90
2023-05-10T10:55:49.249Z,23.00
2023-05-10T10:58:54.838Z,22.75
2023-05-10T11:01:56.904Z,22.79
2023-05-10T11:04:58.705Z,22.74
2023-05-10T11:08:07.272Z,22.70
2023-05-10T11:11:10.274Z,22.92
2023-05-10T11:14:12.062Z,22.82
2023-05-10T11:17:27.669Z,22.83
2023-05-10T11:20:34.458Z,22.63
2023-05-10T11:23:59.691Z,22.39
2023-05-10T11:27:02.055Z,22.23
2023-05-10T11:30:06.849Z,22.06
2023-05-10T11:33:09.828Z,22.25
2023-05-10T11:36:38.450Z,22.09
2023-05-10T11:39:46.349Z,22.29
2023-05-10T11:42:48.056Z,22.10
2023-05-10T11:45:49.821Z,22.37
2023-05-10T11:49:01.707Z,22.60
2023-05-10T11:52:12.080Z,22.41
2023-05-10T11:55:14.157Z,22.62
2023-05-10T11:58:15.874Z,22.54
2023-05-10T12:01:17.771Z,22.55
2023-05-10T12:04:20.055Z,22.76
2023-05-10T12:07:22.115Z,22.66
2023-05-10T12:10:28.244Z,22.70
2023-05-10T12:13:30.101Z,22.71
2023-05-10T12:16:31.983Z,22.41
2023-05-10T12:19:40.621Z,22.29
2023-05-10T12:22:45.747Z,22.20
2023-05-10T12:25:47.921Z,22.50
2023-05-10T12:28:49.726Z,22.15
2023-05-10T12:31:59.834Z,22.53
2023-05-10T12:35:01.948Z,22.45
2023-05-10T12:38:29.881Z,22.31
2023-05-10T12:41:59.131Z,22.32
2023-05-10T12:45:00.930Z,22.15
2023-05-10T12:48:02.665Z,22.33
2023-05-10T12:51:05.728Z,22.35
2023-05-10T12:54:07.483Z,22.46
2023-05-10T12:57:09.338Z,22.46
2023-05-10T13:00:26.669Z,22.54
2023-05-10T13:03:28.400Z,22.47
2023-05-10T13:06:30.550Z,22.61
2023-05-10T13:09:32.259Z,22.47
2023-05-10T13:12:34.255Z,22.61
2023-05-10T13:15:36.199Z,22.54
2023-05-10T13:18:38.043Z,22.43
2023-05-10T13:21:41.878Z,22.50
2023-05-10T13:24:43.702Z,22.56
2023-05-10T13:27:45.695Z,22.44
2023-05-10T13:30:47.562Z,22.34
2023-05-10T13:33:49.364Z,22.33
2023-05-10T13:36:51.217Z,22.24
2023-05-10T13:39:53.071Z,22.20
2023-05-10T13:42:54.960Z,22.14
2023-05-10T13:45:56.781Z,21.86
2023-05-10T13:48:58.613Z,22.06
2023-05-10T13:52:00.732Z,21.96
2023-05-10T13:55:02.553Z,21.84
2023-05-10T13:58:05.607Z,22.05
2023-05-10T14:01:07.795Z,22.03
2023-05-10T14:04:11.460Z,21.89
2023-05-10T14:07:13.386Z,21.87
2023-05-10T14:10:15.330Z,21.94
2023-05-10T14:13:17.298Z,21.98
2023-05-10T14:16:19.253Z,22.02
2023-05-10T14:19:21.458Z,21.97
2023-05-10T14:22:24.741Z,21.77
2023-05-10T14:25:26.957Z,21.76
2023-05-10T14:28:28.932Z,21.76
2023-05-10T14:31:31.491Z,21.72
2023-05-10T14:34:33.843Z,21.76
2023-05-10T14:37:35.672Z,21.74
2023-05-10T14:40:37.587Z,21.75
2023-05-10T14:43:39.420Z,21.73
2023-05-10T14:46:41.185Z,21.69
2023-05-10T14:49:42.962Z,21.62
2023-05-10T14:52:45.234Z,21.72
2023-05-10T14:55:47.071Z,21.72
2023-05-10T14:58:50.204Z,21.83
2023-05-10T15:01:52.203Z,21.78
2023-05-10T15:04:54.669Z,21.75
2023-05-10T15:07:56.980Z,21.69
2023-05-10T15:10:58.825Z,21.71
2023-05-10T15:14:00.600Z,21.63
2023-05-10T15:17:02.380Z,21.64
2023-05-10T15:20:04.968Z,21.60
2023-05-10T15:23:06.976Z,21.44
2023-05-10T15:26:08.880Z,21.35
2023-05-10T15:29:10.601Z,21.20
2023-05-10T15:32:12.528Z,21.15
2023-05-10T15:35:15.098Z,21.22
2023-05-10T15:38:17.057Z,21.17
2023-05-10T15:41:18.862Z,21.11
2023-05-10T15:44:20.641Z,21.22
2023-05-10T15:47:22.584Z,21.13
2023-05-10T15:50:24.342Z,21.13
2023-05-10T15:53:26.199Z,21.20
2023-05-10T15:56:27.919Z,21.20
2023-05-10T15:59:29.707Z,21.13
2023-05-10T16:02:31.619Z,21.06
2023-05-10T16:05:33.826Z,21.00
2023-05-10T16:08:36.032Z,20.55
2023-05-10T16:11:37.842Z,20.95
2023-05-10T16:14:39.576Z,20.73
2023-05-10T16:17:41.934Z,20.91
2023-05-10T16:20:48.453Z,20.69
2023-05-10T16:23:50.239Z,20.57
2023-05-10T16:26:52.171Z,20.77
2023-05-10T16:29:53.928Z,20.75
2023-05-10T16:32:56.867Z,20.74
2023-05-10T16:35:59.030Z,20.64
2023-05-10T16:39:01.314Z,20.53
2023-05-10T16:42:06.336Z,20.55
2023-05-10T16:45:09.328Z,20.24
2023-05-10T16:48:11.033Z,20.25
2023-05-10T16:51:13.306Z,20.19
2023-05-10T16:54:15.022Z,20.25
2023-05-10T16:57:16.815Z,19.98
2023-05-10T17:00:20.849Z,20.01
2023-05-10T17:03:22.822Z,19.89
2023-05-10T17:06:24.712Z,19.79
2023-05-10T17:09:26.464Z,19.69
2023-05-10T17:12:28.275Z,19.35
2023-05-10T17:15:30.219Z,19.57
2023-05-10T17:18:32.028Z,19.54
2023-05-10T17:21:33.859Z,19.42
2023-05-10T17:24:35.678Z,19.35
2023-05-10T17:27:37.497Z,19.26
2023-05-10T17:30:39.263Z,19.26
2023-05-10T17:33:41.043Z,19.26
2023-05-10T17:36:43.026Z,19.10
2023-05-10T17:39:44.769Z,19.12
2023-05-10T17:42:46.493Z,18.79
2023-05-10T17:45:49.991Z,18.88
2023-05-10T17:48:51.791Z,18.83
2023-05-10T17:51:53.583Z,18.61
2023-05-10T17:54:55.355Z,18.36
2023-05-10T17:57:59.513Z,18.20
2023-05-10T18:01:01.441Z,18.00
2023-05-10T18:04:03.324Z,17.89
2023-05-10T18:07:05.155Z,17.68
2023-05-10T18:10:07.522Z,17.62
2023-05-10T18:13:09.693Z,17.50
2023-05-10T18:16:13.409Z,17.27
2023-05-10T18:19:15.390Z,17.20
2023-05-10T18:22:17.226Z,17.09
2023-05-10T18:25:19.589Z,16.75
2023-05-10T18:28:21.592Z,16.70
2023-05-10T18:31:24.443Z,16.60
2023-05-10T18:34:26.229Z,16.30
2023-05-10T18:37:28.099Z,16.16
2023-05-10T18:40:30.075Z,15.99
2023-05-10T18:43:34.185Z,16.04
2023-05-10T18:46:36.597Z,16.11
2023-05-10T18:49:38.929Z,16.11
2023-05-10T18:52:40.813Z,16.12
2023-05-10T18:55:42.845Z,16.14
2023-05-10T18:58:45.687Z,16.12
2023-05-10T19:01:49.460Z,16.09
2023-05-10T19:04:52.737Z,15.96
2023-05-10T19:07:55.392Z,15.86
2023-05-10T19:10:57.188Z,15.84
2023-05-10T19:13:59.202Z,15.56
2023-05-10T19:17:00.933Z,15.47
2023-05-10T19:20:04.053Z,15.09
2023-05-10T19:23:10.204Z,15.35
2023-05-10T19:26:12.563Z,15.37
2023-05-10T19:29:14.652Z,15.31
2023-05-10T19:32:16.456Z,15.25
2023-05-10T19:35:18.705Z,15.25
2023-05-10T19:38:22.141Z,15.12
2023-05-10T19:41:23.970Z,14.98
2023-05-10T19:44:25.790Z,15.03
2023-05-10T19:47:27.570Z,14.81
2023-05-10T19:50:29.385Z,14.89
2023-05-10T19:53:32.304Z,14.86
2023-05-10T19:56:34.888Z,14.81
2023-05-10T19:59:36.618Z,14.67
2023-05-10T20:02:38.458Z,14.59
2023-05-10T20:05:40.388Z,14.53
2023-05-10T20:08:42.318Z,14.36
2023-05-10T20:11:44.202Z,14.21
2023-05-10T20:14:47.469Z,14.20
2023-05-10T20:17:54.068Z,14.18
2023-05-10T20:21:00.322Z,14.04
2023-05-10T20:24:02.180Z,13.99
2023-05-10T20:27:04.627Z,13.89
2023-05-10T20:30:07.140Z,13.88
2023-05-10T20:33:09.427Z,13.84
2023-05-10T20:36:11.432Z,13.68
2023-05-10T20:39:13.252Z,13.62
2023-05-10T20:42:15.198Z,13.65
2023-05-10T20:45:16.999Z,13.54
2023-05-10T20:48:19.591Z,13.49
2023-05-10T20:51:21.314Z,13.35
2023-05-10T20:54:25.990Z,13.26
2023-05-10T20:57:27.870Z,13.12
2023-05-10T21:00:29.666Z,12.99
2023-05-10T21:03:31.458Z,12.98
2023-05-10T21:06:33.135Z,12.83
2023-05-10T21:09:35.899Z,12.86
2023-05-10T21:12:37.898Z,12.66
2023-05-10T21:15:39.689Z,12.76
2023-05-10T21:18:41.527Z,12.70
2023-05-10T21:21:43.306Z,12.52
2023-05-10T21:24:45.139Z,12.50
2023-05-10T21:27:47.279Z,12.48
2023-05-10T21:30:49.101Z,12.38
2023-05-10T21:33:50.821Z,12.26
2023-05-10T21:36:53.926Z,12.27
2023-05-10T21:39:55.674Z,12.18
2023-05-10T21:42:57.910Z,12.13
2023-05-10T21:45:59.759Z,12.06
2023-05-10T21:49:01.572Z,12.12
2023-05-10T21:52:03.386Z,12.10
2023-05-10T21:55:05.966Z,11.82
2023-05-10T21:58:07.710Z,12.07
2023-05-10T22:01:09.614Z,12.11
2023-05-10T22:04:11.456Z,11.94
2023-05-10T22:07:13.607Z,12.00
2023-05-10T22:10:15.711Z,11.92
2023-05-10T22:13:17.591Z,11.99
2023-05-10T22:16:19.395Z,11.88
2023-05-10T22:19:21.193Z,11.83
2023-05-10T22:22:22.959Z,11.90
2023-05-10T22:25:24.658Z,11.82
2023-05-10T22:28:26.496Z,11.75
2023-05-10T22:31:28.315Z,11.66
2023-05-10T22:34:30.157Z,11.43
2023-05-10T22:37:31.987Z,11.64
2023-05-10T22:40:33.776Z,11.56
2023-05-10T22:43:35.539Z,11.54
2023-05-10T22:46:37.586Z,11.38
2023-05-10T22:49:39.368Z,11.34
2023-05-10T22:52:41.377Z,11.25
2023-05-10T22:55:43.190Z,11.36
2023-05-10T22:58:45.058Z,11.26
2023-05-10T23:01:48.927Z,11.20
2023-05-10T23:04:50.829Z,11.21
2023-05-10T23:07:53.621Z,11.17
2023-05-10T23:10:55.636Z,11.29
2023-05-10T23:13:57.472Z,11.26
2023-05-10T23:16:59.362Z,11.22
2023-05-10T23:20:01.256Z,11.12
2023-05-10T23:23:03.003Z,11.17
2023-05-10T23:26:05.294Z,11.07
2023-05-10T23:29:07.183Z,11.08
2023-05-10T23:32:09.072Z,11.04
2023-05-10T23:35:11.047Z,11.08
2023-05-10T23:38:12.888Z,10.97
2023-05-10T23:41:14.621Z,10.94
2023-05-10T23:44:16.730Z,10.95
2023-05-10T23:47:18.776Z,10.88
2023-05-10T23:50:20.568Z,10.78
2023-05-10T23:53:22.315Z,10.63
2023-05-10T23:56:24.024Z,10.62
2023-05-10T23:59:26.001Z,10.46
